Time;durP1;ratioP1;P1;durP2;ratioP2;P2;SDS_P1;SDS_P2;PMS_P1;PMS_P2;Temp;Humidity;BMP_temperature;BMP_pressure;BME280_temperature;BME280_humidity;BME280_pressure;Samples;Min_cycle;Max_cycle;Signal;HPM_P1;HPM_P2
2022/12/07 00:02:05;;;;;;;10.80;8.33;;;2.60;1.00;;;;;;5053728;28;20221;-75
2022/12/07 00:04:31;;;;;;;9.43;8.37;;;2.60;1.00;;;;;;5052873;28;20221;-72
2022/12/07 00:06:57;;;;;;;11.00;9.53;;;2.60;1.00;;;;;;5053516;28;20543;-75
2022/12/07 00:09:23;;;;;;;10.03;8.70;;;2.60;1.00;;;;;;5053518;28;20190;-72
2022/12/07 00:11:50;;;;;;;8.13;7.37;;;2.50;1.00;;;;;;5053678;28;20688;-72
2022/12/07 00:14:17;;;;;;;10.77;9.67;;;2.50;1.00;;;;;;5053135;28;20187;-77
2022/12/07 00:16:44;;;;;;;9.60;7.30;;;2.40;1.00;;;;;;5053462;28;20833;-72
2022/12/07 00:19:12;;;;;;;9.40;8.10;;;2.30;1.00;;;;;;5053358;28;20457;-72
2022/12/07 00:21:38;;;;;;;9.93;8.90;;;2.30;1.00;;;;;;5053380;28;20404;-75
2022/12/07 00:24:05;;;;;;;10.20;7.93;;;2.20;1.00;;;;;;5053431;28;20456;-71
2022/12/07 00:26:34;;;;;;;12.50;8.93;;;2.20;1.00;;;;;;5052907;28;20405;-74
2022/12/07 00:29:03;;;;;;;12.13;9.33;;;2.20;1.00;;;;;;5053249;28;20913;-72
2022/12/07 00:31:33;;;;;;;10.00;8.30;;;2.20;1.00;;;;;;5053229;28;20412;-71
2022/12/07 00:33:59;;;;;;;11.00;9.30;;;2.20;1.00;;;;;;5053343;28;20457;-72
2022/12/07 00:36:25;;;;;;;13.07;8.47;;;2.30;1.00;;;;;;5051299;28;20420;-74
2022/12/07 00:38:52;;;;;;;9.13;8.10;;;2.30;1.00;;;;;;5053072;28;21023;-74
2022/12/07 00:41:20;;;;;;;10.77;7.53;;;2.40;1.00;;;;;;5052068;28;20467;-72
2022/12/07 00:43:48;;;;;;;11.67;9.03;;;2.50;1.00;;;;;;5052881;28;20513;-72
2022/12/07 00:46:14;;;;;;;10.90;8.27;;;2.50;1.00;;;;;;5068190;28;20459;-72
2022/12/07 00:48:41;;;;;;;10.37;8.57;;;2.50;1.00;;;;;;5053253;28;20409;-71
2022/12/07 00:51:09;;;;;;;16.50;9.60;;;2.60;1.00;;;;;;5053232;28;20870;-71
2022/12/07 00:53:36;;;;;;;11.40;8.37;;;2.60;1.00;;;;;;5053055;28;20409;-72
2022/12/07 00:56:06;;;;;;;11.77;8.83;;;2.70;1.00;;;;;;5052282;28;20897;-74
2022/12/07 00:58:32;;;;;;;14.30;10.10;;;2.70;1.00;;;;;;5052946;28;20461;-74
2022/12/07 01:01:03;;;;;;;12.47;10.13;;;2.80;1.00;;;;;;5053168;28;20408;-74
2022/12/07 01:03:29;;;;;;;10.50;9.17;;;2.90;1.00;;;;;;5053069;28;20163;-72
2022/12/07 01:05:56;;;;;;;11.33;8.53;;;2.90;1.00;;;;;;5054243;28;20482;-75
2022/12/07 01:08:23;;;;;;;17.10;9.40;;;2.90;1.00;;;;;;5057037;28;20462;-72
2022/12/07 01:10:49;;;;;;;14.40;9.57;;;2.90;1.00;;;;;;5056854;28;20409;-71
2022/12/07 01:13:16;;;;;;;13.80;9.10;;;2.90;1.00;;;;;;5056896;28;20420;-72
2022/12/07 01:15:43;;;;;;;10.87;9.17;;;2.90;1.00;;;;;;5071578;28;20425;-74
2022/12/07 01:18:10;;;;;;;12.07;8.73;;;3.00;1.00;;;;;;5056670;28;20520;-72
2022/12/07 01:20:36;;;;;;;13.07;8.83;;;2.90;1.00;;;;;;5056863;28;20397;-74
2022/12/07 01:23:02;;;;;;;9.67;7.90;;;2.90;1.00;;;;;;5072035;28;20410;-74
2022/12/07 01:25:28;;;;;;;9.30;8.07;;;2.80;1.00;;;;;;5055867;28;20504;-74
2022/12/07 01:27:54;;;;;;;12.03;8.47;;;2.90;1.00;;;;;;5056453;28;20412;-72
2022/12/07 01:30:20;;;;;;;8.40;6.53;;;2.90;1.00;;;;;;5055442;28;20857;-72
2022/12/07 01:32:46;;;;;;;8.60;6.97;;;2.90;1.00;;;;;;5056418;28;20175;-74
2022/12/07 01:35:11;;;;;;;8.47;6.97;;;3.00;1.00;;;;;;5055677;28;20194;-71
2022/12/07 01:37:38;;;;;;;12.60;7.60;;;2.90;1.00;;;;;;5056261;28;20191;-74
2022/12/07 01:40:06;;;;;;;7.70;7.00;;;2.90;1.00;;;;;;5056156;28;20171;-72
2022/12/07 01:42:33;;;;;;;10.03;6.07;;;2.90;1.00;;;;;;5056195;28;20877;-74
2022/12/07 01:45:17;;;;;;;6.83;5.90;;;3.00;1.00;;;;;;5055481;28;20901;-72
2022/12/07 01:47:52;;;;;;;8.37;6.37;;;3.00;1.00;;;;;;5056142;28;20393;-74
2022/12/07 01:50:18;;;;;;;10.07;6.33;;;3.00;1.00;;;;;;5055988;28;20765;-73
2022/12/07 01:52:48;;;;;;;8.73;6.87;;;3.10;7.10;;;;;;5055058;28;20428;-71
2022/12/07 01:55:14;;;;;;;6.03;5.50;;;3.20;22.80;;;;;;5054355;28;20426;-74
2022/12/07 01:57:45;;;;;;;9.13;6.17;;;3.20;27.20;;;;;;5056162;28;20453;-74
2022/12/07 02:00:11;;;;;;;6.13;5.33;;;3.20;32.80;;;;;;5055801;28;20406;-71
2022/12/07 02:02:43;;;;;;;9.63;5.57;;;3.30;40.60;;;;;;5056011;28;20434;-74
2022/12/07 02:05:09;;;;;;;12.40;5.00;;;3.20;28.80;;;;;;5055175;28;20842;-72
2022/12/07 02:07:37;;;;;;;5.63;4.93;;;3.20;30.70;;;;;;5055724;28;20448;-75
2022/12/07 02:10:20;;;;;;;6.07;5.40;;;3.20;33.70;;;;;;5055793;28;20612;-72
2022/12/07 02:12:53;;;;;;;9.30;6.60;;;3.20;43.40;;;;;;5055792;28;20402;-74
2022/12/07 02:15:21;;;;;;;7.00;6.40;;;3.20;40.90;;;;;;5070212;28;20445;-71
2022/12/07 02:18:31;;;;;;;7.90;5.90;;;3.10;37.80;;;;;;5054664;28;20464;-71
2022/12/07 02:21:28;;;;;;;8.70;7.00;;;3.10;30.70;;;;;;4994397;28;20427;-71
2022/12/07 02:24:10;;;;;;;10.43;7.07;;;3.10;43.80;;;;;;5054415;28;20438;-74
2022/12/07 02:26:41;;;;;;;11.60;7.03;;;3.00;45.60;;;;;;5054871;28;20405;-74
2022/12/07 02:29:24;;;;;;;12.70;8.30;;;2.90;47.10;;;;;;5055418;28;20448;-74
2022/12/07 02:32:16;;;;;;;11.07;7.70;;;2.80;50.70;;;;;;5055353;28;20412;-75
2022/12/07 02:34:55;;;;;;;9.33;8.20;;;2.90;75.80;;;;;;5046166;28;20445;-75
2022/12/07 02:38:03;;;;;;;13.20;9.30;;;2.80;75.60;;;;;;5055283;28;20761;-71
2022/12/07 02:40:28;;;;;;;16.70;10.50;;;2.80;75.70;;;;;;5046801;28;20421;-74
2022/12/07 02:43:06;;;;;;;15.23;9.87;;;2.80;90.70;;;;;;5055088;28;20760;-71
2022/12/07 02:45:36;;;;;;;10.17;8.50;;;2.90;97.00;;;;;;5069977;28;20206;-71
2022/12/07 02:48:03;;;;;;;13.10;8.90;;;2.80;98.00;;;;;;5053733;28;20416;-74
2022/12/07 02:50:28;;;;;;;18.27;9.83;;;2.70;96.10;;;;;;5055133;28;20445;-71
2022/12/07 02:52:55;;;;;;;14.60;10.27;;;2.70;99.90;;;;;;5054818;28;20413;-74
2022/12/07 02:55:27;;;;;;;14.13;8.57;;;2.70;99.90;;;;;;5052907;28;20540;-72
2022/12/07 02:58:36;;;;;;;12.67;8.90;;;2.70;99.90;;;;;;5054985;28;20452;-72
2022/12/07 03:01:17;;;;;;;9.23;8.30;;;2.70;99.90;;;;;;5054700;28;20428;-71
2022/12/07 03:03:50;;;;;;;16.77;9.70;;;2.60;99.90;;;;;;5054819;28;20913;-72
2022/12/07 03:06:34;;;;;;;9.43;8.00;;;2.60;99.90;;;;;;5054057;28;20508;-74
2022/12/07 03:09:21;;;;;;;11.73;8.03;;;2.60;99.90;;;;;;5054625;28;20897;-71
2022/12/07 03:12:00;;;;;;;12.50;8.00;;;2.60;99.90;;;;;;5070297;28;20432;-72
2022/12/07 03:14:33;;;;;;;11.67;8.40;;;2.70;99.90;;;;;;5052780;28;20532;-75
2022/12/07 03:17:13;;;;;;;9.63;8.63;;;2.60;99.90;;;;;;5054436;28;20747;-72
2022/12/07 03:19:41;;;;;;;11.10;8.40;;;2.70;99.90;;;;;;5053237;28;20429;-74
2022/12/07 03:22:12;;;;;;;10.80;8.70;;;2.70;99.90;;;;;;5054390;28;20409;-71
2022/12/07 03:24:43;;;;;;;12.13;9.97;;;2.70;99.90;;;;;;5053554;28;20422;-74
2022/12/07 03:27:23;;;;;;;11.80;9.70;;;2.60;99.90;;;;;;5069306;28;20550;-74
2022/12/07 03:29:59;;;;;;;12.77;8.70;;;2.60;99.90;;;;;;5054238;28;20409;-74
2022/12/07 03:32:33;;;;;;;11.10;7.93;;;2.60;99.90;;;;;;5054182;28;20405;-74
2022/12/07 03:35:17;;;;;;;9.50;8.00;;;2.60;99.90;;;;;;5068654;28;20800;-73
2022/12/07 03:38:11;;;;;;;14.30;10.17;;;2.50;99.90;;;;;;5054229;28;20499;-71
2022/12/07 03:41:00;;;;;;;10.10;8.27;;;2.40;99.90;;;;;;5045785;28;20445;-72
2022/12/07 03:43:28;;;;;;;12.77;9.27;;;2.40;99.90;;;;;;5054234;28;20405;-72
2022/12/07 03:46:29;;;;;;;12.40;9.10;;;2.40;99.90;;;;;;5053237;28;20862;-74
2022/12/07 03:49:06;;;;;;;13.20;8.10;;;2.50;99.90;;;;;;5053788;28;20836;-71
2022/12/07 03:51:44;;;;;;;12.80;8.77;;;2.50;99.90;;;;;;5053844;28;20480;-74
2022/12/07 03:54:15;;;;;;;12.57;9.70;;;2.50;99.90;;;;;;5053509;28;20841;-75
2022/12/07 03:56:43;;;;;;;14.57;8.80;;;2.40;99.90;;;;;;5053413;28;20397;-74
2022/12/07 03:59:10;;;;;;;14.10;9.90;;;2.50;99.90;;;;;;5053705;28;20537;-72
2022/12/07 04:01:36;;;;;;;12.00;8.00;;;2.50;99.90;;;;;;5053766;28;20405;-71
2022/12/07 04:04:02;;;;;;;12.03;8.30;;;2.50;99.90;;;;;;5052433;28;20433;-75
2022/12/07 04:06:27;;;;;;;11.80;7.80;;;2.50;99.90;;;;;;5053089;28;20213;-71
2022/12/07 04:08:53;;;;;;;11.33;7.23;;;2.40;99.90;;;;;;5053691;28;20177;-71
2022/12/07 04:11:19;;;;;;;11.30;8.90;;;2.30;99.90;;;;;;5052451;28;20179;-72
2022/12/07 04:16:29;;;;;;;10.20;7.90;;;2.40;99.90;;;;;;5053000;28;20177;-74
2022/12/07 04:18:54;;;;;;;12.77;8.60;;;2.50;99.90;;;;;;5053428;28;20461;-73
2022/12/07 04:21:20;;;;;;;11.60;8.60;;;2.40;99.90;;;;;;5053409;28;20707;-72
2022/12/07 04:23:46;;;;;;;10.03;7.73;;;2.40;99.90;;;;;;5053475;28;20209;-74
2022/12/07 04:26:11;;;;;;;9.90;7.60;;;2.40;99.90;;;;;;5052828;28;20170;-74
2022/12/07 04:28:37;;;;;;;11.03;9.93;;;2.50;99.90;;;;;;5053303;28;20237;-73
2022/12/07 04:31:03;;;;;;;13.27;8.00;;;2.50;99.90;;;;;;5053266;28;20581;-74
2022/12/07 04:33:28;;;;;;;11.03;8.50;;;2.50;99.90;;;;;;5052146;28;20175;-72
2022/12/07 04:35:54;;;;;;;9.90;7.77;;;2.40;99.90;;;;;;5051595;28;20650;-71
2022/12/07 04:38:20;;;;;;;11.77;9.17;;;2.40;99.90;;;;;;5053104;28;20198;-72
2022/12/07 04:40:45;;;;;;;9.10;7.70;;;2.30;99.90;;;;;;5055983;28;20175;-71
2022/12/07 04:43:11;;;;;;;10.87;8.10;;;2.40;99.90;;;;;;5055970;28;20642;-74
2022/12/07 04:45:37;;;;;;;13.70;9.27;;;2.40;99.90;;;;;;5055191;28;20190;-72
2022/12/07 04:48:03;;;;;;;11.27;8.80;;;2.40;99.90;;;;;;5055890;28;20171;-73
2022/12/07 04:50:28;;;;;;;13.73;8.50;;;2.50;99.90;;;;;;5057413;28;20232;-74
2022/12/07 04:52:54;;;;;;;15.27;8.70;;;2.50;99.90;;;;;;5057138;28;20186;-73
2022/12/07 04:55:20;;;;;;;10.23;8.40;;;2.50;99.90;;;;;;5056397;28;20237;-74
2022/12/07 04:57:45;;;;;;;14.53;9.10;;;2.50;99.90;;;;;;5055737;28;20191;-72
2022/12/07 05:00:11;;;;;;;14.67;10.37;;;2.50;99.90;;;;;;5057063;28;20195;-71
2022/12/07 05:02:37;;;;;;;10.60;9.33;;;2.50;99.90;;;;;;5055995;28;20527;-71
2022/12/07 05:05:03;;;;;;;13.37;9.30;;;2.40;99.90;;;;;;5056230;28;20225;-71
2022/12/07 05:07:29;;;;;;;16.17;10.50;;;2.30;97.90;;;;;;5056929;28;20175;-72
2022/12/07 05:09:54;;;;;;;13.60;9.90;;;2.30;99.60;;;;;;5056921;28;20424;-71
2022/12/07 05:12:20;;;;;;;13.93;10.00;;;2.20;96.50;;;;;;5055582;28;20185;-73
2022/12/07 05:14:46;;;;;;;12.03;10.03;;;2.20;95.00;;;;;;5056325;28;20598;-71
2022/12/07 05:17:11;;;;;;;15.17;9.53;;;2.00;90.30;;;;;;5055590;28;20174;-73
2022/12/07 05:19:37;;;;;;;15.37;9.27;;;1.90;76.30;;;;;;5056691;28;20654;-71
2022/12/07 05:22:03;;;;;;;14.90;9.00;;;1.80;75.00;;;;;;5055274;28;20225;-73
2022/12/07 05:24:29;;;;;;;14.90;8.73;;;1.70;82.80;;;;;;5056047;28;20269;-74
2022/12/07 05:26:54;;;;;;;13.63;9.87;;;1.60;83.20;;;;;;5056625;28;20170;-72
2022/12/07 05:29:20;;;;;;;11.67;9.43;;;1.60;87.70;;;;;;5055234;28;20627;-72
2022/12/07 05:31:46;;;;;;;12.77;8.93;;;1.50;90.80;;;;;;5056309;28;20175;-72
2022/12/07 05:34:12;;;;;;;10.50;8.47;;;1.50;95.40;;;;;;5055401;28;20285;-72
2022/12/07 05:36:37;;;;;;;21.83;7.80;;;1.40;97.60;;;;;;5055811;28;20257;-72
2022/12/07 05:39:03;;;;;;;14.40;10.20;;;1.50;99.90;;;;;;5056302;28;20933;-72
2022/12/07 05:44:13;;;;;;;9.53;7.47;;;1.50;99.90;;;;;;5055879;28;20459;-74
2022/12/07 05:46:39;;;;;;;15.00;8.40;;;1.40;99.90;;;;;;5055740;28;20773;-74
2022/12/07 05:49:04;;;;;;;12.93;9.10;;;1.50;99.90;;;;;;5056199;28;20623;-72
2022/12/07 05:51:30;;;;;;;9.30;8.30;;;1.50;99.90;;;;;;5055767;28;20167;-73
2022/12/07 05:53:56;;;;;;;14.00;9.40;;;1.50;99.90;;;;;;5055842;28;20206;-72
2022/12/07 05:56:22;;;;;;;15.30;9.13;;;1.50;99.90;;;;;;5053989;28;20418;-74
2022/12/07 06:01:32;;;;;;;12.73;9.30;;;1.60;99.90;;;;;;5056288;28;20405;-74
2022/12/07 06:03:58;;;;;;;12.83;8.90;;;1.60;99.90;;;;;;5071497;28;20547;-72
2022/12/07 06:06:23;;;;;;;13.73;10.00;;;1.60;99.90;;;;;;5053721;28;20182;-73
2022/12/07 06:08:49;;;;;;;11.57;8.30;;;1.60;99.90;;;;;;5054729;28;20185;-72
2022/12/07 06:13:59;;;;;;;9.30;7.90;;;1.50;99.90;;;;;;5055586;28;20251;-74
2022/12/07 06:16:25;;;;;;;12.53;8.10;;;1.50;99.90;;;;;;5054957;28;20501;-73
2022/12/07 06:18:50;;;;;;;10.13;7.57;;;1.30;99.90;;;;;;5055545;28;20187;-73
2022/12/07 06:21:16;;;;;;;27.20;10.00;;;1.30;99.90;;;;;;5055404;28;20583;-72
2022/12/07 06:23:42;;;;;;;11.27;7.90;;;1.30;99.90;;;;;;5055500;28;20312;-73
2022/12/07 06:26:07;;;;;;;11.67;8.57;;;1.30;99.90;;;;;;5053575;28;20634;-74
2022/12/07 06:28:33;;;;;;;11.17;7.50;;;1.30;99.90;;;;;;5055419;28;20178;-74
2022/12/07 06:31:03;;;;;;;11.27;7.23;;;1.20;99.90;;;;;;5054357;28;20175;-73
2022/12/07 06:33:29;;;;;;;13.90;7.47;;;1.20;99.90;;;;;;5055350;28;20163;-74
2022/12/07 06:35:55;;;;;;;12.47;8.80;;;1.30;99.90;;;;;;5054753;28;20420;-74
2022/12/07 06:38:21;;;;;;;10.43;7.30;;;1.20;99.90;;;;;;5055081;28;20945;-72
2022/12/07 06:40:47;;;;;;;13.77;8.03;;;1.20;99.90;;;;;;5055207;28;20408;-74
2022/12/07 06:43:13;;;;;;;13.10;7.90;;;1.20;99.90;;;;;;5053865;28;20163;-74
2022/12/07 06:45:40;;;;;;;12.07;7.13;;;1.20;99.90;;;;;;5054365;28;20500;-72
2022/12/07 06:48:06;;;;;;;12.37;7.90;;;1.20;99.90;;;;;;5055064;28;20171;-73
2022/12/07 06:50:32;;;;;;;8.80;7.27;;;1.20;99.90;;;;;;5054861;28;20415;-74
2022/12/07 06:52:57;;;;;;;7.83;6.67;;;1.20;99.90;;;;;;5054983;28;20175;-72
2022/12/07 06:55:23;;;;;;;10.47;7.20;;;1.30;99.90;;;;;;5052815;28;20190;-73
2022/12/07 06:57:49;;;;;;;11.00;7.33;;;1.20;99.90;;;;;;5054773;28;20678;-73
2022/12/07 07:00:16;;;;;;;6.80;5.60;;;1.20;99.90;;;;;;5054782;28;20238;-74
2022/12/07 07:02:41;;;;;;;7.83;6.30;;;1.20;99.90;;;;;;5054125;28;20673;-72
2022/12/07 07:05:08;;;;;;;8.20;5.97;;;1.20;99.90;;;;;;5054043;28;20528;-72
2022/12/07 07:07:33;;;;;;;8.70;6.83;;;1.30;99.90;;;;;;5054892;28;20174;-73
2022/12/07 07:09:59;;;;;;;6.77;5.83;;;1.30;99.90;;;;;;5053690;28;20409;-72
2022/12/07 07:12:25;;;;;;;8.70;6.40;;;1.20;99.90;;;;;;5053151;28;20174;-73
2022/12/07 07:14:50;;;;;;;6.97;5.90;;;1.20;99.90;;;;;;5052416;28;20214;-73
2022/12/07 07:17:16;;;;;;;7.83;5.40;;;1.20;99.90;;;;;;5054554;28;20167;-72
2022/12/07 07:19:42;;;;;;;7.60;6.23;;;1.20;98.40;;;;;;5053276;28;20528;-73
2022/12/07 07:22:07;;;;;;;6.80;6.10;;;1.20;99.90;;;;;;5053473;28;20179;-73
2022/12/07 07:24:33;;;;;;;7.20;6.50;;;1.20;99.90;;;;;;5053617;28;20650;-74
2022/12/07 07:26:59;;;;;;;11.53;6.70;;;1.30;96.60;;;;;;5054233;28;20167;-72
2022/12/07 07:29:25;;;;;;;6.73;4.80;;;1.30;97.10;;;;;;5054376;28;20189;-72
2022/12/07 07:31:50;;;;;;;7.50;5.73;;;1.30;98.20;;;;;;5054252;28;20182;-74
2022/12/07 07:34:16;;;;;;;6.67;5.77;;;1.20;96.40;;;;;;5052935;28;20222;-74
2022/12/07 07:36:42;;;;;;;10.03;6.50;;;1.30;96.50;;;;;;5053855;28;20213;-73
2022/12/07 07:39:09;;;;;;;12.30;6.03;;;1.30;96.40;;;;;;5053993;28;20222;-74
2022/12/07 07:41:34;;;;;;;9.37;5.87;;;1.40;99.90;;;;;;5054266;28;20393;-72
2022/12/07 07:44:00;;;;;;;7.70;7.00;;;1.40;99.90;;;;;;5053803;28;20482;-75
2022/12/07 07:46:26;;;;;;;8.50;6.40;;;1.40;99.90;;;;;;5052285;28;20167;-72
2022/12/07 07:48:51;;;;;;;6.90;5.60;;;1.40;99.90;;;;;;5052770;28;20611;-73
2022/12/07 07:51:17;;;;;;;7.03;5.87;;;1.50;99.90;;;;;;5052807;28;20186;-73
2022/12/07 07:53:43;;;;;;;10.63;6.20;;;1.50;99.90;;;;;;5053758;28;20651;-72
2022/12/07 07:56:08;;;;;;;9.60;6.40;;;1.60;99.90;;;;;;5051852;28;20175;-72
2022/12/07 07:58:35;;;;;;;5.87;5.30;;;1.60;99.90;;;;;;5053647;28;20187;-73
2022/12/07 08:01:06;;;;;;;12.93;6.37;;;1.70;99.90;;;;;;5054052;28;20242;-73
2022/12/07 08:03:31;;;;;;;7.60;5.30;;;1.70;99.80;;;;;;5068957;28;20405;-73
2022/12/07 08:05:57;;;;;;;8.13;5.73;;;1.70;99.90;;;;;;5053079;28;20428;-72
2022/12/07 08:08:23;;;;;;;7.77;5.10;;;1.80;98.40;;;;;;5053765;28;20170;-72
2022/12/07 08:10:50;;;;;;;7.20;5.63;;;1.80;99.20;;;;;;5052627;28;20253;-73
2022/12/07 08:13:16;;;;;;;9.93;5.70;;;1.80;97.30;;;;;;5052351;28;20175;-72
2022/12/07 08:15:46;;;;;;;8.03;5.57;;;1.90;96.30;;;;;;5052808;28;20425;-73
2022/12/07 08:18:13;;;;;;;9.13;4.43;;;2.00;98.60;;;;;;5053522;28;20456;-72
2022/12/07 08:20:39;;;;;;;8.43;5.37;;;2.10;96.70;;;;;;5053611;28;20838;-72
2022/12/07 08:23:06;;;;;;;5.93;4.53;;;2.10;92.20;;;;;;5053434;28;20732;-73
2022/12/07 08:25:32;;;;;;;10.73;6.50;;;2.10;93.20;;;;;;5068036;28;20432;-73
2022/12/07 08:27:58;;;;;;;6.50;4.90;;;2.10;80.80;;;;;;5053535;28;20758;-73
2022/12/07 08:30:24;;;;;;;6.17;5.53;;;2.10;76.50;;;;;;5053281;28;20438;-72
2022/12/07 08:32:50;;;;;;;7.80;5.47;;;2.10;75.50;;;;;;5052278;28;20647;-73
2022/12/07 08:35:16;;;;;;;5.40;4.90;;;2.20;75.30;;;;;;5052186;28;20667;-74
2022/12/07 08:37:42;;;;;;;7.10;4.00;;;2.20;74.50;;;;;;5053186;28;20531;-73
2022/12/07 08:40:10;;;;;;;4.50;3.87;;;2.20;72.40;;;;;;5068684;28;20902;-73
2022/12/07 08:42:39;;;;;;;11.53;4.97;;;2.30;71.80;;;;;;5053248;28;20397;-72
2022/12/07 08:45:11;;;;;;;7.07;4.23;;;2.30;53.10;;;;;;5052526;28;20428;-73
2022/12/07 08:47:41;;;;;;;5.87;4.80;;;2.30;53.90;;;;;;5053095;28;20404;-72
2022/12/07 08:50:09;;;;;;;5.00;4.50;;;2.40;42.90;;;;;;5053284;28;20401;-72
2022/12/07 08:52:36;;;;;;;5.50;4.30;;;2.50;42.40;;;;;;5053301;28;20401;-73
2022/12/07 08:55:04;;;;;;;7.80;5.30;;;2.40;23.00;;;;;;5052370;28;20421;-72
2022/12/07 08:57:34;;;;;;;13.10;5.40;;;2.30;1.00;;;;;;5052806;28;20408;-74
2022/12/07 09:00:00;;;;;;;5.43;4.30;;;2.30;1.00;;;;;;5053233;28;20983;-72
2022/12/07 09:02:26;;;;;;;4.70;4.30;;;2.40;1.00;;;;;;5052070;28;20409;-72
2022/12/07 09:04:51;;;;;;;5.17;3.93;;;2.40;1.00;;;;;;5067792;28;20516;-73
2022/12/07 09:07:17;;;;;;;7.53;4.53;;;2.40;1.00;;;;;;5052998;28;20481;-73
2022/12/07 09:09:43;;;;;;;5.93;4.17;;;2.40;1.00;;;;;;5053002;28;20171;-74
2022/12/07 09:12:10;;;;;;;7.20;3.40;;;2.40;1.00;;;;;;5053234;28;20171;-73
2022/12/07 09:14:36;;;;;;;7.43;4.70;;;2.40;1.00;;;;;;5052323;28;20210;-73
2022/12/07 09:17:10;;;;;;;5.27;3.37;;;2.40;1.00;;;;;;5053132;28;20405;-73
2022/12/07 09:19:36;;;;;;;5.93;3.10;;;2.40;1.00;;;;;;5051603;28;20445;-74
2022/12/07 09:22:02;;;;;;;4.57;3.20;;;2.50;1.00;;;;;;5068378;28;20765;-73
2022/12/07 09:24:28;;;;;;;2.80;2.60;;;2.50;1.00;;;;;;5051988;28;20448;-73
2022/12/07 09:26:53;;;;;;;6.30;3.03;;;2.50;1.00;;;;;;5055816;28;20889;-74
2022/12/07 09:29:19;;;;;;;5.57;3.10;;;2.50;1.00;;;;;;5056733;28;20172;-73
2022/12/07 09:31:45;;;;;;;3.57;2.70;;;2.50;1.00;;;;;;5056465;28;20582;-75
2022/12/07 09:34:10;;;;;;;4.30;2.37;;;2.60;1.00;;;;;;5055212;28;20249;-73
2022/12/07 09:36:36;;;;;;;3.07;2.50;;;2.60;1.00;;;;;;5055972;28;20246;-72
2022/12/07 09:39:04;;;;;;;2.37;2.17;;;2.60;1.00;;;;;;5056353;28;20194;-72
2022/12/07 09:41:31;;;;;;;2.83;2.50;;;2.60;1.00;;;;;;5056294;28;20167;-74
2022/12/07 09:44:10;;;;;;;4.17;1.90;;;2.60;1.00;;;;;;5056103;28;20417;-73
2022/12/07 09:46:39;;;;;;;7.63;2.70;;;2.60;1.00;;;;;;5055792;28;20394;-72
2022/12/07 09:49:09;;;;;;;12.83;2.10;;;2.60;1.00;;;;;;5056236;28;20405;-72
2022/12/07 09:51:35;;;;;;;2.30;2.10;;;2.60;1.00;;;;;;5056039;28;20410;-73
2022/12/07 09:54:02;;;;;;;3.47;2.40;;;2.70;1.00;;;;;;5055757;28;20429;-74
2022/12/07 09:56:30;;;;;;;2.40;2.30;;;2.70;1.00;;;;;;5055508;28;20639;-72
2022/12/07 09:59:01;;;;;;;2.13;2.03;;;2.70;1.00;;;;;;5055996;28;20502;-73
2022/12/07 10:01:32;;;;;;;2.57;2.47;;;2.80;1.00;;;;;;5055948;28;20404;-72
2022/12/07 10:04:06;;;;;;;2.13;2.00;;;2.80;1.00;;;;;;5055733;28;20479;-73
2022/12/07 10:06:32;;;;;;;3.07;2.30;;;2.70;1.00;;;;;;5054081;28;20435;-73
2022/12/07 10:08:58;;;;;;;2.67;1.97;;;2.70;1.00;;;;;;5054804;28;20409;-74
2022/12/07 10:11:24;;;;;;;4.27;2.13;;;2.70;1.00;;;;;;5056042;28;20401;-73
2022/12/07 10:13:53;;;;;;;4.70;2.20;;;2.80;1.00;;;;;;5055725;28;20559;-76
2022/12/07 10:16:28;;;;;;;8.83;1.80;;;2.80;1.00;;;;;;5055105;28;20539;-73
2022/12/07 10:18:54;;;;;;;6.70;2.50;;;2.80;1.00;;;;;;5055760;28;20452;-72
2022/12/07 10:21:25;;;;;;;3.97;2.20;;;2.80;1.00;;;;;;5055630;28;20406;-72
2022/12/07 10:24:01;;;;;;;5.20;2.87;;;2.80;1.00;;;;;;5055650;28;20445;-72
2022/12/07 10:26:41;;;;;;;2.70;2.23;;;2.80;99.90;;;;;;5054990;28;20971;-72
2022/12/07 10:29:29;;;;;;;2.70;1.93;;;2.80;99.90;;;;;;5055495;28;20433;-73
2022/12/07 10:32:06;;;;;;;3.63;2.23;;;2.90;99.90;;;;;;5055498;28;20397;-73
2022/12/07 10:34:37;;;;;;;2.97;2.37;;;2.90;99.90;;;;;;5054651;28;20547;-71
2022/12/07 10:37:17;;;;;;;2.57;2.27;;;2.90;99.90;;;;;;5054360;28;20402;-72
2022/12/07 10:39:49;;;;;;;2.60;2.40;;;2.90;99.90;;;;;;5055270;28;20444;-71
2022/12/07 10:42:23;;;;;;;5.13;2.43;;;2.90;99.90;;;;;;5055342;28;20394;-73
2022/12/07 10:45:06;;;;;;;2.70;2.10;;;2.90;99.90;;;;;;5054534;28;20414;-71
2022/12/07 10:48:09;;;;;;;6.33;1.90;;;3.00;99.90;;;;;;5055160;28;20476;-72
2022/12/07 10:50:56;;;;;;;3.40;2.50;;;2.90;99.90;;;;;;5054943;28;20424;-72
2022/12/07 10:53:28;;;;;;;2.30;2.20;;;3.00;99.90;;;;;;5054898;28;20412;-71
2022/12/07 10:56:18;;;;;;;2.63;2.40;;;3.10;99.90;;;;;;5053284;28;20397;-72
2022/12/07 10:59:14;;;;;;;2.57;2.37;;;3.10;99.90;;;;;;5053424;28;20797;-72
2022/12/07 11:02:17;;;;;;;2.90;2.00;;;3.10;99.90;;;;;;5054851;28;20398;-73
2022/12/07 11:04:48;;;;;;;9.63;1.90;;;3.20;99.90;;;;;;5036092;28;20984;-73
2022/12/07 11:07:55;;;;;;;2.57;1.60;;;3.30;99.90;;;;;;5054695;28;20492;-73
2022/12/07 11:10:43;;;;;;;5.03;2.10;;;3.30;99.90;;;;;;5046502;28;20425;-71
2022/12/07 11:13:28;;;;;;;2.37;1.80;;;3.50;99.90;;;;;;5054552;28;20405;-72
2022/12/07 11:16:26;;;;;;;3.40;2.43;;;3.50;99.90;;;;;;5053984;28;20459;-72
2022/12/07 11:19:29;;;;;;;2.47;2.13;;;3.60;99.90;;;;;;5054390;28;20465;-73
2022/12/07 11:22:00;;;;;;;3.40;2.07;;;3.50;99.90;;;;;;5054487;28;20897;-72
2022/12/07 11:24:30;;;;;;;2.53;1.73;;;3.60;99.90;;;;;;5053669;28;20417;-73
2022/12/07 11:26:56;;;;;;;5.33;1.53;;;3.60;99.90;;;;;;5054363;28;20413;-72
2022/12/07 11:29:51;;;;;;;7.33;1.93;;;3.60;99.90;;;;;;5054340;28;20409;-72
2022/12/07 11:32:55;;;;;;;1.90;1.80;;;3.50;99.90;;;;;;5053337;28;20256;-72
2022/12/07 11:35:40;;;;;;;2.23;2.03;;;3.50;99.90;;;;;;5003057;28;20848;-71
2022/12/07 11:38:15;;;;;;;2.30;2.03;;;3.50;99.90;;;;;;5053003;28;20453;-72
2022/12/07 11:40:47;;;;;;;4.23;1.97;;;3.40;99.90;;;;;;5054032;28;20471;-73
2022/12/07 11:43:24;;;;;;;5.00;2.30;;;3.40;99.90;;;;;;5054084;28;20467;-73
2022/12/07 11:46:09;;;;;;;3.87;2.57;;;3.50;99.90;;;;;;5053358;28;20413;-71
2022/12/07 11:48:41;;;;;;;1.67;1.57;;;3.50;99.90;;;;;;5053745;28;20874;-72
2022/12/07 11:51:11;;;;;;;3.43;1.77;;;3.50;99.90;;;;;;5053951;28;20441;-73
2022/12/07 11:54:23;;;;;;;3.40;1.60;;;3.50;99.90;;;;;;5048635;28;20477;-72
2022/12/07 11:56:51;;;;;;;1.93;1.73;;;3.50;99.90;;;;;;5050110;28;20775;-73
2022/12/07 11:59:39;;;;;;;1.90;1.80;;;3.60;99.90;;;;;;5052545;28;20481;-71
2022/12/07 12:02:16;;;;;;;2.33;1.50;;;3.50;99.90;;;;;;5037061;28;20406;-70
2022/12/07 12:04:55;;;;;;;1.90;1.77;;;3.60;99.90;;;;;;5032092;28;21088;-73
2022/12/07 12:07:25;;;;;;;1.80;1.70;;;3.60;99.90;;;;;;5050583;28;20490;-72
2022/12/07 12:10:02;;;;;;;3.80;1.77;;;3.50;99.90;;;;;;5052370;28;20478;-72
2022/12/07 12:12:46;;;;;;;2.30;1.97;;;3.50;99.90;;;;;;5051487;28;20463;-72
2022/12/07 12:15:30;;;;;;;4.30;2.00;;;3.60;99.90;;;;;;5052420;28;20775;-72
2022/12/07 12:18:15;;;;;;;2.13;1.73;;;3.50;99.90;;;;;;5053215;28;20457;-72
2022/12/07 12:21:04;;;;;;;1.80;1.70;;;3.50;99.90;;;;;;5051581;28;20416;-72
2022/12/07 12:23:55;;;;;;;7.50;1.63;;;3.40;99.90;;;;;;5052773;28;20417;-72
2022/12/07 12:26:25;;;;;;;1.70;1.60;;;3.40;99.90;;;;;;5050394;28;20417;-71
2022/12/07 12:29:39;;;;;;;2.13;1.80;;;3.30;99.90;;;;;;5044900;28;20479;-73
2022/12/07 12:32:20;;;;;;;2.33;2.23;;;3.40;99.90;;;;;;5044158;28;20425;-73
2022/12/07 12:35:21;;;;;;;2.60;2.40;;;3.50;99.90;;;;;;5051420;28;20548;-71
2022/12/07 12:37:47;;;;;;;1.80;1.70;;;3.50;99.90;;;;;;4989499;28;20418;-77
2022/12/07 12:40:16;;;;;;;2.30;2.10;;;3.40;99.90;;;;;;5043888;28;20405;-71
2022/12/07 12:42:48;;;;;;;2.67;2.47;;;3.40;99.90;;;;;;5052186;28;20405;-71
2022/12/07 12:45:31;;;;;;;1.73;0.95;;;3.30;99.90;;;;;;5051357;28;20407;-70
2022/12/07 12:48:38;;;;;;;2.63;2.43;;;3.40;99.90;;;;;;5051136;28;20322;-73
2022/12/07 12:51:39;;;;;;;3.93;2.00;;;3.40;99.90;;;;;;5045391;28;20428;-70
2022/12/07 12:54:14;;;;;;;2.23;2.00;;;3.30;99.90;;;;;;5049405;28;20816;-69
2022/12/07 12:57:05;;;;;;;2.80;1.80;;;3.20;99.90;;;;;;5048012;28;20980;-71
2022/12/07 12:59:42;;;;;;;2.50;1.97;;;3.10;99.90;;;;;;5051844;28;21032;-72
2022/12/07 13:02:23;;;;;;;2.30;2.20;;;3.00;99.90;;;;;;5071727;28;20412;-72
2022/12/07 13:05:12;;;;;;;2.30;2.10;;;3.10;99.90;;;;;;5055819;28;20458;-73
2022/12/07 13:07:47;;;;;;;4.40;2.10;;;3.10;99.90;;;;;;5056837;28;20476;-72
2022/12/07 13:10:30;;;;;;;3.17;1.90;;;3.20;99.90;;;;;;5056910;28;20961;-72
2022/12/07 13:13:05;;;;;;;1.63;1.53;;;3.30;99.90;;;;;;5056210;28;20401;-72
2022/12/07 13:15:38;;;;;;;2.63;1.90;;;3.20;99.70;;;;;;5054066;28;20863;-71
2022/12/07 13:18:28;;;;;;;1.90;1.80;;;3.00;99.90;;;;;;5054808;28;20460;-72
2022/12/07 13:21:06;;;;;;;2.20;2.00;;;2.90;90.00;;;;;;5056579;28;20406;-72
2022/12/07 13:23:45;;;;;;;3.03;1.43;;;2.80;89.80;;;;;;5056203;28;20404;-72
2022/12/07 13:26:15;;;;;;;2.07;1.97;;;2.60;96.00;;;;;;5055555;28;20392;-72
2022/12/07 13:28:48;;;;;;;2.63;2.43;;;2.50;93.30;;;;;;5054494;28;20929;-72
2022/12/07 13:31:25;;;;;;;2.50;1.97;;;2.50;90.20;;;;;;5061345;28;20423;-72